Time;durP1;ratioP1;P1;durP2;ratioP2;P2;SDS_P1;SDS_P2;PMS_P1;PMS_P2;Temp;Humidity;BMP_temperature;BMP_pressure;BME280_temperature;BME280_humidity;BME280_pressure;Samples;Min_cycle;Max_cycle;Signal;HPM_P1;HPM_P2
2022/06/20 00:02:45;;;;;;;23.67;8.63;;;;;;;27.16;44.64;93306.38;5049509;28;20201;-62
2022/06/20 00:05:33;;;;;;;24.33;8.50;;;;;;;26.97;45.71;93308.59;5057189;28;20558;-62
2022/06/20 00:08:18;;;;;;;16.37;8.33;;;;;;;27.22;44.68;93303.53;5048927;28;20626;-62
2022/06/20 00:11:01;;;;;;;18.80;8.60;;;;;;;27.11;45.30;93304.97;5049319;28;20702;-62
2022/06/20 00:13:48;;;;;;;18.57;8.47;;;;;;;27.00;45.03;93300.66;5048150;28;20285;-62
2022/06/20 00:16:33;;;;;;;24.93;7.93;;;;;;;26.87;45.49;93300.63;5049063;28;20256;-62
2022/06/20 00:19:17;;;;;;;15.43;8.20;;;;;;;26.86;45.71;93299.19;5052148;28;20205;-62
2022/06/20 00:22:01;;;;;;;18.17;9.10;;;;;;;26.73;46.50;93300.63;5049603;28;20245;-62
2022/06/20 00:24:45;;;;;;;18.10;9.10;;;;;;;26.55;47.37;93294.84;5049019;28;20339;-62
2022/06/20 00:27:29;;;;;;;14.77;7.67;;;;;;;26.63;46.90;93289.13;5049484;28;20710;-62
2022/06/20 00:30:16;;;;;;;21.90;9.43;;;;;;;26.47;49.06;93286.25;5052026;28;20216;-62
2022/06/20 00:33:00;;;;;;;22.43;10.10;;;;;;;26.39;49.36;93283.34;5047165;28;20279;-62
2022/06/20 00:35:45;;;;;;;17.00;8.63;;;;;;;26.68;48.13;93289.84;5053294;28;20204;-62
2022/06/20 00:38:30;;;;;;;22.00;9.60;;;;;;;26.75;47.53;93294.88;5042582;28;20206;-62
2022/06/20 00:41:19;;;;;;;19.97;9.87;;;;;;;26.64;47.55;93289.84;5042751;28;20198;-62
2022/06/20 00:44:03;;;;;;;18.80;8.97;;;;;;;26.63;47.67;93289.13;5049324;28;20217;-62
2022/06/20 00:46:51;;;;;;;23.83;9.40;;;;;;;26.64;47.99;93290.56;5051840;28;20221;-62
2022/06/20 00:49:52;;;;;;;20.90;8.57;;;;;;;26.70;47.42;93295.59;5049644;28;20197;-62
2022/06/20 00:52:45;;;;;;;17.10;8.60;;;;;;;26.63;47.76;93297.75;5042982;28;20721;-62
2022/06/20 00:56:24;;;;;;;16.13;9.23;;;;;;;26.54;47.40;93293.41;5046085;28;20201;-62
2022/06/20 00:59:15;;;;;;;18.53;9.53;;;;;;;26.47;47.25;93294.88;5038535;28;20248;-62
2022/06/20 01:02:06;;;;;;;20.93;8.93;;;;;;;26.34;48.35;93297.00;5047648;28;20673;-62
2022/06/20 01:05:03;;;;;;;14.03;9.23;;;;;;;26.38;48.41;93297.00;5049895;28;20233;-62
2022/06/20 01:08:04;;;;;;;12.67;8.67;;;;;;;26.39;49.00;93306.34;5052935;28;20289;-62
2022/06/20 01:11:05;;;;;;;15.67;9.13;;;;;;;26.12;49.44;93302.63;5061697;28;20617;-62
2022/06/20 01:13:51;;;;;;;17.23;9.47;;;;;;;26.25;48.77;93309.16;5048870;28;20312;-62
2022/06/20 01:16:35;;;;;;;18.13;10.10;;;;;;;26.13;49.41;93301.94;5046991;28;20282;-62
2022/06/20 01:19:38;;;;;;;15.07;7.67;;;;;;;26.19;48.60;93306.97;5051293;28;20292;-62
2022/06/20 01:22:32;;;;;;;17.53;9.50;;;;;;;26.05;48.50;93298.31;5049287;28;20193;-62
2022/06/20 01:25:35;;;;;;;20.47;9.27;;;;;;;25.78;48.05;93300.38;5046662;28;20206;-62
2022/06/20 01:28:26;;;;;;;19.70;10.27;;;;;;;25.90;48.30;93300.41;5051742;28;20617;-62
2022/06/20 01:31:11;;;;;;;18.77;8.93;;;;;;;25.89;48.33;93309.75;5045536;28;20701;-62
2022/06/20 01:33:58;;;;;;;21.77;9.33;;;;;;;25.29;52.17;93308.69;5050949;28;20236;-62
2022/06/20 01:39:51;;;;;;;19.73;10.03;;;;;;;25.61;50.25;93316.09;5051711;28;20294;-62
2022/06/20 01:42:36;;;;;;;16.97;8.53;;;;;;;25.66;50.32;93320.41;5049830;28;20301;-62
2022/06/20 01:48:28;;;;;;;16.90;10.13;;;;;;;25.68;49.56;93326.13;5038632;28;20212;-62
2022/06/20 01:51:19;;;;;;;19.40;8.70;;;;;;;25.63;49.59;93330.41;5050996;28;20209;-62
2022/06/20 01:54:04;;;;;;;16.00;8.70;;;;;;;25.59;49.71;93336.16;5040776;28;20199;-62
2022/06/20 01:56:50;;;;;;;21.43;10.13;;;;;;;25.45;49.67;93324.56;5052078;28;20201;-62
2022/06/20 01:59:54;;;;;;;18.97;9.80;;;;;;;25.56;49.71;93326.75;5046696;28;20204;-62
2022/06/20 02:02:44;;;;;;;19.83;9.90;;;;;;;25.53;49.84;93328.19;5048152;28;20205;-62
2022/06/20 02:05:31;;;;;;;21.17;10.33;;;;;;;25.07;51.82;93320.00;5055860;28;20228;-62
2022/06/20 02:08:19;;;;;;;20.57;9.10;;;;;;;25.11;51.71;93325.78;5047876;28;20208;-62
2022/06/20 02:11:17;;;;;;;19.97;9.37;;;;;;;25.23;50.85;93325.16;5051486;28;20244;-62
2022/06/20 02:14:06;;;;;;;21.30;9.10;;;;;;;25.43;50.39;93330.28;5047218;28;20210;-61
2022/06/20 02:17:02;;;;;;;22.03;9.70;;;;;;;25.49;49.88;93321.72;5046429;28;20347;-61
2022/06/20 02:19:51;;;;;;;19.93;9.43;;;;;;;25.56;49.18;93315.28;5045098;28;20245;-62
2022/06/20 02:22:36;;;;;;;17.67;10.20;;;;;;;25.44;49.81;93325.97;5048597;28;20197;-61
2022/06/20 02:25:25;;;;;;;19.63;9.87;;;;;;;25.33;49.98;93328.78;5051083;28;20282;-62
2022/06/20 02:28:15;;;;;;;29.90;11.17;;;;;;;25.36;50.14;93332.41;5049442;28;20217;-61
2022/06/20 02:30:59;;;;;;;22.77;10.00;;;;;;;25.33;50.30;93325.19;5048176;28;20205;-61
2022/06/20 02:33:46;;;;;;;18.57;9.93;;;;;;;25.40;50.46;93326.69;5047562;28;20213;-62
2022/06/20 02:36:31;;;;;;;32.80;10.83;;;;;;;25.29;49.99;93322.31;5039020;28;20281;-62
2022/06/20 02:39:17;;;;;;;22.87;10.17;;;;;;;25.35;50.31;93325.94;5050287;28;20281;-61
2022/06/20 02:42:05;;;;;;;21.13;9.87;;;;;;;25.32;50.56;93315.88;5050175;28;20196;-62
2022/06/20 02:44:52;;;;;;;23.60;10.63;;;;;;;25.28;51.14;93318.72;5048649;28;20300;-62
2022/06/20 02:47:40;;;;;;;25.80;11.00;;;;;;;25.31;50.58;93314.44;5047519;28;20753;-62
2022/06/20 02:50:28;;;;;;;31.53;10.93;;;;;;;25.13;51.61;93320.03;5041773;28;20384;-62
2022/06/20 02:53:16;;;;;;;24.77;10.50;;;;;;;25.04;52.27;93321.44;5048620;28;20230;-62
2022/06/20 02:56:01;;;;;;;19.07;10.63;;;;;;;25.28;51.52;93320.88;5049733;28;20228;-62
2022/06/20 02:58:50;;;;;;;21.50;9.87;;;;;;;25.28;51.07;93321.59;5040247;28;20201;-62
2022/06/20 03:01:52;;;;;;;22.13;10.00;;;;;;;25.23;51.41;93320.13;5047325;28;20198;-62
2022/06/20 03:04:42;;;;;;;21.00;10.23;;;;;;;25.46;50.38;93317.41;5044585;28;20317;-62
2022/06/20 03:07:29;;;;;;;26.53;10.33;;;;;;;25.41;50.66;93316.66;5046697;28;20281;-62
2022/06/20 03:10:16;;;;;;;20.90;9.13;;;;;;;25.52;49.38;93308.81;5048984;28;20740;-62
2022/06/20 03:13:01;;;;;;;18.67;9.17;;;;;;;25.63;49.40;93307.47;5042904;28;20214;-62
2022/06/20 03:15:47;;;;;;;25.30;9.63;;;;;;;25.56;49.33;93308.84;5052839;28;20267;-62
2022/06/20 03:18:41;;;;;;;19.23;9.07;;;;;;;25.60;49.21;93308.91;5053870;28;20201;-62
2022/06/20 03:21:33;;;;;;;27.53;9.17;;;;;;;25.64;49.11;93306.03;5046989;28;20209;-61
2022/06/20 03:24:21;;;;;;;14.20;8.93;;;;;;;25.58;49.87;93311.75;5048481;28;20558;-62
2022/06/20 03:27:07;;;;;;;22.20;9.67;;;;;;;25.58;49.77;93318.22;5049106;28;20205;-62
2022/06/20 03:29:55;;;;;;;15.33;8.97;;;;;;;25.69;49.06;93321.84;5053984;28;20196;-62
2022/06/20 03:32:39;;;;;;;20.13;8.73;;;;;;;25.77;49.00;93321.88;5045496;28;20241;-62
2022/06/20 03:35:26;;;;;;;21.10;8.50;;;;;;;25.82;48.92;93323.34;5048676;28;20740;-62
2022/06/20 03:38:12;;;;;;;21.23;9.40;;;;;;;25.61;49.61;93318.94;5067190;28;20278;-62
2022/06/20 03:40:56;;;;;;;17.93;8.87;;;;;;;25.75;49.31;93324.75;5047553;28;20624;-62
2022/06/20 03:43:46;;;;;;;21.47;9.80;;;;;;;25.73;49.38;93322.59;5052963;28;20244;-62
2022/06/20 03:46:39;;;;;;;19.20;7.87;;;;;;;25.67;49.91;93324.72;5042795;28;20284;-62
2022/06/20 03:49:26;;;;;;;16.90;7.87;;;;;;;25.87;48.42;93324.78;5046701;28;20263;-62
2022/06/20 03:52:16;;;;;;;19.63;8.33;;;;;;;25.85;48.44;93333.41;5052975;28;20302;-62
2022/06/20 03:55:34;;;;;;;18.27;8.70;;;;;;;25.76;48.95;93326.19;5046329;28;20269;-62
2022/06/20 03:58:27;;;;;;;19.57;8.17;;;;;;;25.82;48.80;93331.97;5046412;28;20201;-62
2022/06/20 04:01:17;;;;;;;20.20;8.90;;;;;;;25.79;49.30;93336.25;5051206;28;20241;-62
2022/06/20 04:04:08;;;;;;;22.47;8.83;;;;;;;25.73;49.62;93327.63;5053878;28;20220;-62
2022/06/20 04:07:01;;;;;;;15.73;7.30;;;;;;;25.52;50.41;93337.50;5046635;28;20293;-62
2022/06/20 04:13:08;;;;;;;22.20;8.60;;;;;;;25.92;48.97;93334.88;5052418;28;20221;-62
2022/06/20 04:15:58;;;;;;;21.57;8.73;;;;;;;25.85;49.75;93347.78;5051946;28;20228;-62
2022/06/20 04:18:57;;;;;;;20.40;8.67;;;;;;;26.66;46.13;93350.94;5041261;28;20274;-62
2022/06/20 04:21:58;;;;;;;19.50;7.77;;;;;;;26.79;45.89;93360.28;5047797;28;20221;-62
2022/06/20 04:24:57;;;;;;;20.43;7.07;;;;;;;26.87;43.92;93358.13;5050540;28;20814;-62
2022/06/20 04:28:26;;;;;;;14.43;6.40;;;;;;;28.02;39.62;93365.97;5050890;28;20256;-62
2022/06/20 04:31:25;;;;;;;17.13;5.87;;;;;;;27.95;38.32;93372.50;5046664;28;20209;-62
2022/06/20 04:34:36;;;;;;;13.40;6.10;;;;;;;28.30;37.56;93370.94;5048658;28;20207;-62
2022/06/20 04:37:30;;;;;;;14.90;5.00;;;;;;;28.73;36.30;93367.84;5053117;28;20205;-63
2022/06/20 04:40:33;;;;;;;23.37;6.60;;;;;;;29.75;34.42;93385.84;5053269;28;20193;-62
2022/06/20 04:43:36;;;;;;;18.30;6.13;;;;;;;29.95;33.82;93391.47;5046184;28;20214;-62
2022/06/20 04:46:35;;;;;;;15.75;6.03;;;;;;;30.59;32.65;93406.66;5043510;28;20202;-63
2022/06/20 04:49:19;;;;;;;16.35;5.47;;;;;;;30.76;32.30;93410.78;5053166;28;20573;-63
2022/06/20 04:52:03;;;;;;;15.60;5.72;;;;;;;31.29;31.89;93407.88;5051219;28;20595;-63
2022/06/20 04:54:47;;;;;;;17.90;5.60;;;;;;;31.40;32.79;93416.41;5045840;28;20206;-63
2022/06/20 04:57:33;;;;;;;16.83;6.15;;;;;;;31.13;32.98;93416.09;5050459;28;20244;-63
2022/06/20 05:00:25;;;;;;;16.27;6.10;;;;;;;30.99;33.99;93427.81;5047630;28;20205;-63
2022/06/20 05:03:14;;;;;;;18.38;5.85;;;;;;;31.34;33.99;93428.81;5046538;28;20603;-63
2022/06/20 05:06:00;;;;;;;19.25;6.40;;;;;;;29.34;40.45;93438.19;5052555;28;20255;-65
2022/06/20 05:08:52;;;;;;;16.10;6.18;;;;;;;29.43;43.59;93432.34;5052433;28;20213;-76
2022/06/20 05:11:41;;;;;;;23.13;6.40;;;;;;;28.52;50.15;93428.47;5051053;28;20335;-79
2022/06/20 05:14:34;;;;;;;20.13;5.55;;;;;;;28.28;58.58;93425.69;5050603;28;20201;-77
2022/06/20 05:17:27;;;;;;;23.08;7.25;;;;;;;28.58;56.76;93428.44;5052076;28;20268;-67
2022/06/20 05:20:32;;;;;;;16.65;6.18;;;;;;;28.78;43.15;93438.50;5048173;28;20197;-64
2022/06/20 05:23:35;;;;;;;14.77;5.93;;;;;;;30.32;44.35;93432.25;5044595;28;20685;-63
2022/06/20 05:26:22;;;;;;;17.25;5.82;;;;;;;29.27;40.00;93439.63;5051978;28;20573;-63
2022/06/20 05:29:15;;;;;;;15.25;5.90;;;;;;;30.13;35.80;93431.72;5050750;28;20305;-63
2022/06/20 05:32:02;;;;;;;16.85;6.15;;;;;;;29.59;36.17;93455.31;5049224;28;20221;-62
2022/06/20 05:34:56;;;;;;;15.40;6.32;;;;;;;29.85;36.12;93457.97;5051020;28;20312;-63
2022/06/20 05:37:53;;;;;;;11.43;5.38;;;;;;;30.26;36.46;93463.38;5047800;28;20638;-63
2022/06/20 05:40:49;;;;;;;14.75;6.10;;;;;;;29.38;37.70;93477.81;5052264;28;20248;-63
2022/06/20 05:43:34;;;;;;;19.35;5.93;;;;;;;30.14;36.62;93479.41;5046085;28;20194;-62
2022/06/20 05:46:30;;;;;;;17.13;6.15;;;;;;;29.42;36.27;93495.13;5044689;28;20213;-62
2022/06/20 05:49:25;;;;;;;19.05;6.30;;;;;;;29.79;35.10;93494.88;5060493;28;20221;-62
2022/06/20 05:52:16;;;;;;;17.13;6.07;;;;;;;29.88;36.89;93490.44;5049518;28;20240;-63
2022/06/20 05:55:11;;;;;;;11.77;5.68;;;;;;;29.82;34.77;93490.50;5045124;28;20280;-63
2022/06/20 05:57:57;;;;;;;18.65;6.60;;;;;;;29.11;36.35;93488.81;5042679;28;20241;-63
2022/06/20 06:00:42;;;;;;;16.10;5.65;;;;;;;29.74;34.87;93499.97;5045814;28;20575;-63
2022/06/20 06:03:40;;;;;;;16.27;6.65;;;;;;;30.17;34.19;93505.41;5051394;28;20244;-63
2022/06/20 06:06:39;;;;;;;17.67;6.13;;;;;;;29.51;35.56;93513.81;5054456;28;20626;-63
2022/06/20 06:09:33;;;;;;;11.57;5.55;;;;;;;29.16;36.08;93513.28;5049019;28;20576;-63
2022/06/20 06:12:25;;;;;;;15.40;5.80;;;;;;;28.95;36.35;93509.06;5048874;28;20217;-62
2022/06/20 06:15:28;;;;;;;17.10;6.43;;;;;;;29.43;35.75;93513.19;5046901;28;20331;-62
2022/06/20 06:18:15;;;;;;;12.07;5.60;;;;;;;29.46;35.55;93517.47;5047433;28;20209;-63
2022/06/20 06:20:59;;;;;;;21.88;6.13;;;;;;;29.14;35.96;93513.31;5057346;28;20206;-63
2022/06/20 06:23:45;;;;;;;14.48;5.75;;;;;;;29.37;35.70;93527.66;5043520;28;20223;-62
2022/06/20 06:26:29;;;;;;;14.10;5.65;;;;;;;29.65;36.00;93533.22;5051869;28;20205;-63
2022/06/20 06:29:39;;;;;;;12.02;5.75;;;;;;;30.59;34.52;93536.09;5051375;28;20347;-62
2022/06/20 06:32:48;;;;;;;16.67;5.65;;;;;;;30.15;35.34;93541.53;5049801;28;20229;-62
2022/06/20 06:35:42;;;;;;;19.67;6.10;;;;;;;29.82;36.02;93546.09;5044585;28;20197;-62
2022/06/20 06:38:56;;;;;;;16.05;5.72;;;;;;;30.09;35.41;93556.03;5044537;28;20303;-63
2022/06/20 06:41:46;;;;;;;24.45;6.10;;;;;;;30.93;34.14;93544.38;5042488;28;20232;-63
2022/06/20 06:44:36;;;;;;;14.55;5.40;;;;;;;30.74;35.37;93548.94;5047561;28;20220;-62
2022/06/20 06:47:39;;;;;;;14.70;5.82;;;;;;;30.19;36.15;93568.94;5047058;28;20233;-62
2022/06/20 06:50:40;;;;;;;17.67;5.97;;;;;;;31.37;34.56;93569.19;5046351;28;20748;-62
2022/06/20 06:53:35;;;;;;;19.38;6.25;;;;;;;31.08;35.33;93559.44;5042800;28;20245;-62
2022/06/20 06:56:30;;;;;;;17.30;6.18;;;;;;;31.80;33.98;93577.31;5049946;28;20260;-62
2022/06/20 06:59:20;;;;;;;16.65;6.40;;;;;;;30.54;35.67;93584.59;5054431;28;20565;-62
2022/06/20 07:02:12;;;;;;;14.90;6.60;;;;;;;31.04;35.15;93582.63;5039557;28;20225;-63
2022/06/20 07:05:03;;;;;;;13.52;5.30;;;;;;;32.25;33.09;93578.09;5039375;28;20294;-63
2022/06/20 07:07:55;;;;;;;15.55;5.78;;;;;;;32.42;33.04;93579.25;5039826;28;20209;-63
2022/06/20 07:10:52;;;;;;;15.63;5.43;;;;;;;31.90;32.91;93582.97;5045542;28;20314;-64
2022/06/20 07:13:46;;;;;;;14.68;5.22;;;;;;;32.34;32.27;93585.19;5043579;28;20741;-64
2022/06/20 07:16:42;;;;;;;15.18;5.40;;;;;;;32.38;31.43;93596.75;5047560;28;20690;-64
2022/06/20 07:19:26;;;;;;;12.07;5.35;;;;;;;31.93;32.23;93595.97;5049056;28;20221;-64
2022/06/20 07:22:14;;;;;;;11.30;4.47;;;;;;;33.20;30.81;93590.97;5048220;28;20286;-64
2022/06/20 07:25:00;;;;;;;13.60;5.00;;;;;;;33.70;29.49;93592.09;5046605;28;20221;-64
2022/06/20 07:27:51;;;;;;;11.93;5.10;;;;;;;33.93;29.10;93594.53;5048154;28;20212;-65
2022/06/20 07:30:42;;;;;;;15.35;5.28;;;;;;;34.33;28.87;93616.16;5040880;28;20205;-65
2022/06/20 07:33:37;;;;;;;16.17;5.90;;;;;;;34.89;28.65;93614.78;5042438;28;20229;-65
2022/06/20 07:36:34;;;;;;;11.90;4.75;;;;;;;33.21;29.98;93618.50;5046823;28;20202;-65
2022/06/20 07:39:27;;;;;;;19.30;5.13;;;;;;;33.65;28.60;93627.78;5046051;28;20229;-65
2022/06/20 07:42:22;;;;;;;12.40;4.63;;;;;;;34.16;28.89;93615.09;5046993;28;20790;-64
2022/06/20 07:45:12;;;;;;;14.77;4.65;;;;;;;35.23;27.09;93624.13;5048420;28;20604;-64
2022/06/20 07:48:01;;;;;;;15.20;4.30;;;;;;;34.53;27.20;93612.75;5047295;28;20737;-64
2022/06/20 07:50:52;;;;;;;13.52;4.68;;;;;;;34.51;27.55;93618.63;5044560;28;20198;-64
2022/06/20 07:53:36;;;;;;;13.25;4.10;;;;;;;32.74;29.32;93617.91;5043758;28;20844;-64
2022/06/20 07:56:39;;;;;;;18.20;4.30;;;;;;;35.93;25.41;93620.66;5044507;28;20682;-63
2022/06/20 07:59:47;;;;;;;15.18;3.80;;;;;;;35.85;26.01;93620.91;5045924;28;20247;-63
2022/06/20 08:02:42;;;;;;;13.80;3.60;;;;;;;35.16;26.19;93631.56;5051875;28;20252;-63
2022/06/20 08:05:41;;;;;;;13.65;3.58;;;;;;;33.89;26.77;93630.22;5051568;28;20201;-64
2022/06/20 08:08:42;;;;;;;10.98;3.60;;;;;;;35.90;25.25;93636.81;5046252;28;20233;-63
2022/06/20 08:11:43;;;;;;;12.10;4.03;;;;;;;36.58;24.17;93636.19;5044128;28;20197;-63
2022/06/20 08:14:46;;;;;;;11.95;3.97;;;;;;;35.83;24.88;93641.38;5052028;28;20208;-63
2022/06/20 08:17:32;;;;;;;12.85;3.70;;;;;;;36.08;24.61;93647.94;5052036;28;20208;-63
2022/06/20 08:20:17;;;;;;;11.05;4.15;;;;;;;36.65;24.39;93643.28;5047826;28;20248;-64
2022/06/20 08:23:11;;;;;;;9.30;3.33;;;;;;;35.15;24.90;93630.84;5050337;28;20197;-64
2022/06/20 08:25:58;;;;;;;13.23;3.88;;;;;;;34.82;25.39;93651.34;5047283;28;20408;-64
2022/06/20 08:28:53;;;;;;;10.77;3.45;;;;;;;35.97;23.22;93643.88;5049931;28;20301;-63
2022/06/20 08:31:51;;;;;;;13.18;3.95;;;;;;;36.37;23.69;93654.34;5048768;28;20210;-63
2022/06/20 08:34:42;;;;;;;8.57;3.30;;;;;;;35.02;25.01;93658.84;5048138;28;20205;-64
2022/06/20 08:37:37;;;;;;;7.15;3.50;;;;;;;34.87;25.20;93654.88;5042338;28;20324;-64
2022/06/20 08:40:46;;;;;;;11.90;4.95;;;;;;;34.77;25.13;93655.84;5047132;28;20261;-65
2022/06/20 08:44:04;;;;;;;14.07;3.70;;;;;;;33.81;25.91;93658.75;5046753;28;20815;-60
2022/06/20 08:47:00;;;;;;;10.93;3.72;;;;;;;34.75;25.38;93658.78;5051592;28;20197;-60
2022/06/20 08:50:27;;;;;;;10.20;3.45;;;;;;;33.81;25.97;93653.66;5052192;28;20257;-61
2022/06/20 08:53:11;;;;;;;11.02;3.17;;;;;;;33.82;26.58;93655.09;5051128;28;20221;-63
2022/06/20 08:56:27;;;;;;;9.98;3.17;;;;;;;34.31;25.83;93662.78;5049812;28;20256;-63
2022/06/20 08:59:44;;;;;;;5.47;3.03;;;;;;;33.70;26.80;93653.13;5041576;28;20226;-62
2022/06/20 09:02:50;;;;;;;11.07;3.67;;;;;;;33.26;27.35;93657.66;5045577;28;20678;-67
2022/06/20 09:05:55;;;;;;;17.20;3.95;;;;;;;34.60;26.26;93669.34;5054641;28;20200;-67
2022/06/20 09:08:43;;;;;;;16.77;3.70;;;;;;;33.96;26.66;93663.50;5047298;28;20285;-67
2022/06/20 09:11:36;;;;;;;10.15;3.42;;;;;;;34.39;26.31;93654.56;5045381;28;20208;-64
2022/06/20 09:14:31;;;;;;;15.05;3.72;;;;;;;34.03;26.36;93664.09;5058612;28;20732;-66
2022/06/20 09:17:53;;;;;;;8.25;3.63;;;;;;;34.39;25.60;93662.56;5049051;28;20280;-67
2022/06/20 09:20:56;;;;;;;14.02;4.22;;;;;;;33.85;26.36;93665.19;5038338;28;20262;-66
2022/06/20 09:23:57;;;;;;;8.35;3.22;;;;;;;33.53;26.62;93666.53;5046111;28;20225;-64
2022/06/20 09:26:58;;;;;;;19.63;4.00;;;;;;;34.33;26.15;93663.41;5041443;28;20248;-65
2022/06/20 09:30:08;;;;;;;9.10;2.90;;;;;;;34.30;25.57;93670.06;5050554;28;20724;-64
2022/06/20 09:33:07;;;;;;;15.40;3.70;;;;;;;34.02;26.14;93653.91;5048892;28;20252;-65
2022/06/20 09:36:13;;;;;;;18.13;4.40;;;;;;;34.62;26.28;93662.78;5050700;28;20629;-65
2022/06/20 09:39:34;;;;;;;14.25;3.47;;;;;;;35.19;25.94;93662.06;5048507;28;20224;-66
2022/06/20 09:42:37;;;;;;;10.93;3.78;;;;;;;34.93;25.77;93659.84;5047860;28;20189;-65
2022/06/20 09:45:52;;;;;;;11.48;4.10;;;;;;;34.93;25.40;93660.56;5042280;28;20216;-64
2022/06/20 09:48:49;;;;;;;9.82;3.35;;;;;;;34.17;26.74;93663.06;5047775;28;20694;-65
2022/06/20 09:51:48;;;;;;;10.25;4.00;;;;;;;34.52;26.16;93654.97;5046571;28;20226;-63
2022/06/20 09:55:10;;;;;;;9.18;3.45;;;;;;;34.25;26.55;93645.47;5045912;28;20236;-63
2022/06/20 09:58:03;;;;;;;12.93;4.47;;;;;;;34.60;26.41;93660.63;5044783;28;20269;-63
2022/06/20 10:01:03;;;;;;;10.82;4.05;;;;;;;35.29;25.08;93653.09;5047676;28;20641;-63
2022/06/20 10:03:53;;;;;;;14.52;4.35;;;;;;;33.57;27.52;93654.13;5049610;28;20245;-64
2022/06/20 10:06:43;;;;;;;18.02;3.95;;;;;;;35.02;25.79;93655.22;5051540;28;20626;-64
2022/06/20 10:10:10;;;;;;;14.05;4.50;;;;;;;36.90;24.14;93649.75;5047635;28;20233;-64
2022/06/20 10:13:02;;;;;;;9.35;3.85;;;;;;;35.12;25.81;93669.53;5045835;28;20598;-63
2022/06/20 10:16:16;;;;;;;11.05;4.00;;;;;;;34.95;25.71;93656.84;5044946;28;20285;-63
2022/06/20 10:19:23;;;;;;;10.13;3.72;;;;;;;35.28;26.12;93645.81;5048413;28;20201;-64
2022/06/20 10:22:14;;;;;;;11.70;4.30;;;;;;;35.42;24.79;93642.53;5046361;28;20285;-66
2022/06/20 10:25:16;;;;;;;13.82;3.75;;;;;;;34.67;25.13;93647.34;5045344;28;20233;-64
2022/06/20 10:28:12;;;;;;;7.97;3.25;;;;;;;35.63;24.58;93649.19;5049811;28;20208;-65
2022/06/20 10:31:11;;;;;;;11.32;3.58;;;;;;;36.18;23.61;93644.00;5047219;28;20283;-65
2022/06/20 10:34:13;;;;;;;10.75;2.92;;;;;;;36.54;22.95;93648.00;5042024;28;20733;-65
2022/06/20 10:37:12;;;;;;;10.15;3.30;;;;;;;35.91;23.21;93644.06;5045124;28;20283;-65
2022/06/20 10:39:56;;;;;;;8.80;3.20;;;;;;;35.47;23.76;93643.84;5045378;28;20202;-65
2022/06/20 10:42:52;;;;;;;8.50;3.67;;;;;;;36.48;23.17;93640.84;5038427;28;20835;-65
2022/06/20 10:46:11;;;;;;;8.52;2.70;;;;;;;36.53;23.50;93634.91;5040094;28;20291;-65
2022/06/20 10:49:19;;;;;;;12.43;3.33;;;;;;;37.99;21.88;93637.13;5041177;28;20198;-65
2022/06/20 10:52:28;;;;;;;10.48;2.97;;;;;;;37.06;21.57;93640.44;5046736;28;20272;-65
2022/06/20 10:55:40;;;;;;;10.32;3.38;;;;;;;37.62;21.72;93625.34;5042631;28;20201;-66
2022/06/20 10:58:54;;;;;;;8.40;3.13;;;;;;;38.32;20.90;93630.06;5046534;28;20575;-66
2022/06/20 11:01:50;;;;;;;12.10;3.10;;;;;;;40.98;19.00;93634.44;5040072;28;20217;-66
2022/06/20 11:05:06;;;;;;;10.65;3.30;;;;;;;38.14;21.01;93630.75;5049114;28;20345;-66
2022/06/20 11:07:55;;;;;;;10.95;3.65;;;;;;;37.58;21.82;93620.38;5043697;28;20237;-66
2022/06/20 11:10:46;;;;;;;9.02;3.42;;;;;;;38.02;21.49;93629.69;5038784;28;20680;-66
2022/06/20 11:13:37;;;;;;;11.85;3.47;;;;;;;38.87;20.82;93636.66;5039049;28;20221;-66
2022/06/20 11:16:48;;;;;;;12.70;3.33;;;;;;;38.19;20.65;93623.97;5043450;28;20204;-65
2022/06/20 11:20:07;;;;;;;12.20;2.97;;;;;;;37.49;21.28;93622.13;5046033;28;20213;-66
2022/06/20 11:23:05;;;;;;;10.95;3.35;;;;;;;36.38;22.44;93614.91;5040947;28;20259;-66
2022/06/20 11:26:07;;;;;;;12.77;3.15;;;;;;;36.07;22.15;93623.16;5043275;28;20209;-66
2022/06/20 11:29:04;;;;;;;9.30;3.35;;;;;;;38.15;21.67;93608.75;5046937;28;20215;-66
2022/06/20 11:31:51;;;;;;;12.05;3.10;;;;;;;36.75;20.90;93631.25;5046179;28;20599;-66
2022/06/20 11:34:51;;;;;;;11.73;3.05;;;;;;;37.36;21.21;93612.38;5041692;28;20591;-66
2022/06/20 11:38:11;;;;;;;11.80;3.17;;;;;;;36.03;23.13;93617.47;5043077;28;20232;-66
2022/06/20 11:41:00;;;;;;;12.15;3.00;;;;;;;36.67;22.00;93605.25;5050459;28;20381;-66
2022/06/20 11:44:15;;;;;;;5.80;2.38;;;;;;;36.12;22.65;93612.78;5050559;28;20205;-66
2022/06/20 11:47:06;;;;;;;9.57;3.45;;;;;;;35.88;23.24;93613.53;5045102;28;20209;-66
2022/06/20 11:50:16;;;;;;;9.15;2.92;;;;;;;37.28;22.18;93610.44;5053463;28;20240;-66
2022/06/20 11:53:46;;;;;;;8.82;3.03;;;;;;;36.99;21.91;93601.22;5048384;28;20221;-65
2022/06/20 11:56:38;;;;;;;6.85;2.60;;;;;;;36.85;21.78;93601.72;5037896;28;20582;-66
2022/06/20 11:59:34;;;;;;;7.25;2.80;;;;;;;37.70;20.89;93595.81;5043872;28;20556;-66
2022/06/20 12:02:21;;;;;;;10.65;2.47;;;;;;;39.15;19.72;93597.38;5047160;28;20198;-67
2022/06/20 12:05:18;;;;;;;8.77;2.55;;;;;;;39.29;19.59;93602.63;5044496;28;20274;-67
2022/06/20 12:08:16;;;;;;;11.05;3.30;;;;;;;39.06;19.58;93594.09;5046142;28;20602;-66
2022/06/20 12:11:10;;;;;;;7.20;2.55;;;;;;;39.65;19.29;93591.50;5049351;28;20729;-67
2022/06/20 12:14:02;;;;;;;19.33;3.17;;;;;;;38.63;19.21;93597.34;5051359;28;20776;-67
2022/06/20 12:17:06;;;;;;;6.72;2.80;;;;;;;39.35;18.79;93593.59;5040412;28;20251;-67
2022/06/20 12:23:45;;;;;;;12.38;2.78;;;;;;;39.76;18.39;93591.75;5050405;28;20690;-68
2022/06/20 12:26:39;;;;;;;9.38;2.78;;;;;;;38.56;19.60;93599.81;5049584;28;20264;-67
2022/06/20 12:29:25;;;;;;;7.18;2.58;;;;;;;39.00;19.56;93591.41;5046142;28;20621;-67
2022/06/20 12:32:16;;;;;;;9.55;2.65;;;;;;;39.43;18.79;93598.38;5042530;28;20280;-67
2022/06/20 12:35:20;;;;;;;15.00;2.90;;;;;;;40.94;17.91;93589.84;5051287;28;20248;-67
2022/06/20 12:38:14;;;;;;;8.30;2.50;;;;;;;41.85;17.20;93591.03;5047114;28;20228;-67
2022/06/20 12:41:02;;;;;;;10.20;2.58;;;;;;;41.69;17.63;93580.81;5052118;28;20200;-67
2022/06/20 12:44:21;;;;;;;6.63;2.40;;;;;;;42.30;17.01;93583.41;5049968;28;20252;-67
2022/06/20 12:47:26;;;;;;;11.27;2.70;;;;;;;43.65;16.81;93582.97;5049497;28;20197;-67
2022/06/20 12:50:21;;;;;;;6.75;2.55;;;;;;;41.36;16.91;93584.03;5041361;28;20647;-67
2022/06/20 12:53:35;;;;;;;10.85;2.60;;;;;;;41.74;16.43;93575.41;5048075;28;20256;-67
2022/06/20 12:56:25;;;;;;;5.43;2.67;;;;;;;40.47;18.06;93585.53;5044379;28;20238;-67
2022/06/20 12:59:57;;;;;;;11.77;2.90;;;;;;;41.72;17.33;93572.59;5051585;28;20416;-67
2022/06/20 13:03:19;;;;;;;9.68;3.15;;;;;;;38.97;18.97;93571.78;5041941;28;20225;-67
2022/06/20 13:06:25;;;;;;;8.40;2.67;;;;;;;41.35;17.47;93573.81;5047154;28;20622;-67
2022/06/20 13:09:21;;;;;;;7.97;2.72;;;;;;;40.67;17.70;93572.81;5039880;28;20313;-66
2022/06/20 13:12:53;;;;;;;14.23;2.70;;;;;;;40.42;17.89;93579.16;5036577;28;20218;-66
2022/06/20 13:15:45;;;;;;;12.95;2.67;;;;;;;41.36;17.05;93552.38;5040787;28;20249;-65
2022/06/20 13:18:35;;;;;;;7.97;2.70;;;;;;;41.41;17.52;93564.66;5048674;28;20203;-65
2022/06/20 13:21:28;;;;;;;4.32;2.30;;;;;;;41.90;16.78;93548.78;5052186;28;20567;-65
2022/06/20 13:24:12;;;;;;;13.15;3.05;;;;;;;40.28;18.51;93556.34;5040830;28;20260;-65
2022/06/20 13:27:12;;;;;;;12.82;2.97;;;;;;;41.84;16.90;93534.38;5045066;28;20229;-65
2022/06/20 13:30:05;;;;;;;9.27;2.70;;;;;;;41.57;16.76;93543.22;5044698;28;20702;-64
2022/06/20 13:33:04;;;;;;;4.63;2.58;;;;;;;41.77;16.14;93533.28;5046859;28;20284;-65
2022/06/20 13:35:57;;;;;;;6.93;2.80;;;;;;;40.14;17.61;93528.34;5046111;28;20202;-65
2022/06/20 13:38:51;;;;;;;7.57;2.47;;;;;;;39.04;19.05;93520.19;5050981;28;20631;-66
2022/06/20 13:41:47;;;;;;;10.88;3.08;;;;;;;39.47;18.85;93527.81;5040326;28;20436;-66
2022/06/20 13:44:38;;;;;;;8.88;2.10;;;;;;;43.00;15.77;93522.66;5043083;28;20197;-68
2022/06/20 13:47:29;;;;;;;6.93;2.30;;;;;;;42.65;16.39;93496.72;5046048;28;20193;-66
2022/06/20 13:50:19;;;;;;;6.50;2.42;;;;;;;43.10;15.77;93512.47;5044037;28;20229;-67
2022/06/20 13:53:19;;;;;;;11.05;2.50;;;;;;;41.50;16.91;93506.81;5049118;28;20221;-67